YM Initiative — A8HX4 — position and weather

sailwx.info

Track history (hours):
 
Tides and Currents Weather Stations Pressure Air Temp Water Temp Dewpoint Dewpoint Depression Visibility Wind Speed Wind Dir Waves Ship Positions

YM Initiative

Last reported at 2016-Dec-10 05:24 UTC. Time now 2016-Dec-10 10:59 UTC.
Position N 24°29' E 119°04'.

Length 173 m; draft 7.7 m.

Type: Cargo ship. MMSI: 635961368.

Date/timePositionNaut miles runAvg speedWind from/ knotsBaromVisibWave heightAir tempDewpointWater temp
2016-Dec-10 05:24N 24°29' E 119°04'3217.2
2016-Dec-10 03:32N 24°18' E 118°30'1717.7
2016-Dec-10 02:33N 24°19' E 118°11'1111.3
2016-Dec-10 01:33N 24°27' E 118°03'4 3.4
2016-Dec-10 00:17N 24°31' E 118°05'0 0.0
2016-Dec-09 23:17N 24°31' E 118°05'0 0.0
2016-Dec-09 22:32N 24°31' E 118°05'0 0.0
2016-Dec-09 21:05N 24°31' E 118°05'0 0.0
2016-Dec-09 20:26N 24°31' E 118°05'0 0.0
2016-Dec-09 19:29N 24°31' E 118°05'0 0.0
2016-Dec-09 18:30N 24°31' E 118°05'0 0.0
2016-Dec-09 17:29N 24°31' E 118°05'0 0.0
2016-Dec-09 16:31N 24°31' E 118°05'0 0.0
2016-Dec-09 15:25N 24°31' E 118°05'0 0.0
2016-Dec-09 13:19N 24°31' E 118°05'0 0.0
2016-Dec-09 12:31N 24°31' E 118°05'0 0.0
2016-Dec-09 11:31N 24°31' E 118°05'0 0.0
2016-Dec-09 10:31N 24°31' E 118°05'1 0.9
2016-Dec-09 09:33N 24°31' E 118°04'10 9.7
2016-Dec-09 08:33N 24°22' E 118°09'1312.6
2016-Dec-09 07:33N 24°15' E 118°21'1312.9
2016-Dec-09 06:33N 24°02' E 118°20'1615.5
2016-Dec-09 05:33N 23°49' E 118°12'1515.6
2016-Dec-09 04:33N 23°38' E 117°60'7715.3
2016-Dec-08 23:31N 22°51' E 116°53'16814.1
2016-Dec-08 11:33N 22°26' E 113°53'1 1.3
2016-Dec-08 10:26N 22°28' E 113°54'0 0.0
2016-Dec-08 09:32N 22°28' E 113°54'0 0.0
2016-Dec-08 08:32N 22°28' E 113°54'0 0.0
2016-Dec-08 07:32N 22°28' E 113°54'0 0.0
2016-Dec-08 06:32N 22°28' E 113°54'0 0.0
2016-Dec-08 05:26N 22°28' E 113°54'0 0.0
2016-Dec-08 04:32N 22°28' E 113°54'0 0.0
2016-Dec-08 03:14N 22°28' E 113°54'0 0.0
2016-Dec-08 02:20N 22°28' E 113°54'0 0.0
2016-Dec-08 01:20N 22°28' E 113°54'0 0.0
2016-Dec-08 00:20N 22°28' E 113°54'4 4.8
2016-Dec-07 23:33N 22°24' E 113°54'11 8.4
2016-Dec-07 22:14N 22°20' E 114°05'319 7.1
2016-Dec-06 01:34N 22°30' E 119°50'1413.7
2016-Dec-06 00:33N 22°32' E 120°04'1211.6
2016-Dec-05 23:33N 22°33' E 120°17'2 1.1
2016-Dec-05 21:33N 22°34' E 120°19'0 0.0
2016-Dec-05 20:27N 22°34' E 120°19'0 0.0
2016-Dec-05 19:27N 22°34' E 120°19'0 0.0
2016-Dec-05 16:27N 22°34' E 120°19'0 0.0
2016-Dec-05 15:21N 22°34' E 120°19'0 0.0
2016-Dec-05 14:32N 22°34' E 120°19'3 2.6
2016-Dec-05 13:33N 22°32' E 120°17'6 6.3
2016-Dec-05 12:33N 22°35' E 120°11'10 9.9
2016-Dec-05 11:33N 22°44' E 120°06'  
Track history (hours):
 
Tides and Currents Weather Stations Pressure Air Temp Water Temp Dewpoint Dewpoint Depression Visibility Wind Speed Wind Dir Waves Ship Positions

YM Initiative

Last reported at 2016-Dec-10 05:24 UTC. Time now 2016-Dec-10 10:59 UTC.
Position N 24°29' E 119°04'.

Length 173 m; draft 7.7 m.

Type: Cargo ship. MMSI: 635961368.

Date/timePositionNaut miles runAvg speedWind from/ knotsBaromVisibWave heightAir tempDewpointWater temp
2016-Dec-10 05:24N 24°29' E 119°04'3217.2
2016-Dec-10 03:32N 24°18' E 118°30'1717.7
2016-Dec-10 02:33N 24°19' E 118°11'1111.3
2016-Dec-10 01:33N 24°27' E 118°03'4 3.4
2016-Dec-10 00:17N 24°31' E 118°05'0 0.0
2016-Dec-09 23:17N 24°31' E 118°05'0 0.0
2016-Dec-09 22:32N 24°31' E 118°05'0 0.0
2016-Dec-09 21:05N 24°31' E 118°05'0 0.0
2016-Dec-09 20:26N 24°31' E 118°05'0 0.0
2016-Dec-09 19:29N 24°31' E 118°05'0 0.0
2016-Dec-09 18:30N 24°31' E 118°05'0 0.0
2016-Dec-09 17:29N 24°31' E 118°05'0 0.0
2016-Dec-09 16:31N 24°31' E 118°05'0 0.0
2016-Dec-09 15:25N 24°31' E 118°05'0 0.0
2016-Dec-09 13:19N 24°31' E 118°05'0 0.0
2016-Dec-09 12:31N 24°31' E 118°05'0 0.0
2016-Dec-09 11:31N 24°31' E 118°05'0 0.0
2016-Dec-09 10:31N 24°31' E 118°05'1 0.9
2016-Dec-09 09:33N 24°31' E 118°04'10 9.7
2016-Dec-09 08:33N 24°22' E 118°09'1312.6
2016-Dec-09 07:33N 24°15' E 118°21'1312.9
2016-Dec-09 06:33N 24°02' E 118°20'1615.5
2016-Dec-09 05:33N 23°49' E 118°12'1515.6
2016-Dec-09 04:33N 23°38' E 117°60'7715.3
2016-Dec-08 23:31N 22°51' E 116°53'16814.1
2016-Dec-08 11:33N 22°26' E 113°53'1 1.3
2016-Dec-08 10:26N 22°28' E 113°54'0 0.0
2016-Dec-08 09:32N 22°28' E 113°54'0 0.0
2016-Dec-08 08:32N 22°28' E 113°54'0 0.0
2016-Dec-08 07:32N 22°28' E 113°54'0 0.0
2016-Dec-08 06:32N 22°28' E 113°54'0 0.0
2016-Dec-08 05:26N 22°28' E 113°54'0 0.0
2016-Dec-08 04:32N 22°28' E 113°54'0 0.0
2016-Dec-08 03:14N 22°28' E 113°54'0 0.0
2016-Dec-08 02:20N 22°28' E 113°54'0 0.0
2016-Dec-08 01:20N 22°28' E 113°54'0 0.0
2016-Dec-08 00:20N 22°28' E 113°54'4 4.8
2016-Dec-07 23:33N 22°24' E 113°54'11 8.4
2016-Dec-07 22:14N 22°20' E 114°05'319 7.1
2016-Dec-06 01:34N 22°30' E 119°50'1413.7
2016-Dec-06 00:33N 22°32' E 120°04'1211.6
2016-Dec-05 23:33N 22°33' E 120°17'2 1.1
2016-Dec-05 21:33N 22°34' E 120°19'0 0.0
2016-Dec-05 20:27N 22°34' E 120°19'0 0.0
2016-Dec-05 19:27N 22°34' E 120°19'0 0.0
2016-Dec-05 16:27N 22°34' E 120°19'0 0.0
2016-Dec-05 15:21N 22°34' E 120°19'0 0.0
2016-Dec-05 14:32N 22°34' E 120°19'3 2.6
2016-Dec-05 13:33N 22°32' E 120°17'6 6.3
2016-Dec-05 12:33N 22°35' E 120°11'10 9.9
2016-Dec-05 11:33N 22°44' E 120°06'  

Dump ship's entire track history